sensor_id;sensor_type;location;lat;lon;timestamp;pressure;altitude;pressure_sealevel;temperature;humidity
75006;BME280;63553;51.814;4.600;2023-05-10T00:01:41;101012.53;;;13.14;85.63
75006;BME280;63553;51.814;4.600;2023-05-10T00:04:07;101022.25;;;13.08;88.42
75006;BME280;63553;51.814;4.600;2023-05-10T00:06:32;101022.72;;;13.02;88.62
75006;BME280;63553;51.814;4.600;2023-05-10T00:08:58;101021.16;;;13.30;89.60
75006;BME280;63553;51.814;4.600;2023-05-10T00:11:23;101023.41;;;13.36;87.56
75006;BME280;63553;51.814;4.600;2023-05-10T00:13:49;101018.78;;;13.03;87.66
75006;BME280;63553;51.814;4.600;2023-05-10T00:16:14;101015.81;;;13.08;87.66
75006;BME280;63553;51.814;4.600;2023-05-10T00:18:39;101023.41;;;13.36;87.11
75006;BME280;63553;51.814;4.600;2023-05-10T00:21:05;101019.78;;;13.45;86.55
75006;BME280;63553;51.814;4.600;2023-05-10T00:23:30;101013.56;;;13.39;86.14
75006;BME280;63553;51.814;4.600;2023-05-10T00:25:56;101015.78;;;13.16;87.06
75006;BME280;63553;51.814;4.600;2023-05-10T00:28:21;101012.00;;;13.21;89.57
75006;BME280;63553;51.814;4.600;2023-05-10T00:30:47;101005.50;;;13.00;88.94
75006;BME280;63553;51.814;4.600;2023-05-10T00:33:12;101006.78;;;13.02;87.75
75006;BME280;63553;51.814;4.600;2023-05-10T00:35:38;101013.91;;;12.91;88.39
75006;BME280;63553;51.814;4.600;2023-05-10T00:38:03;101011.16;;;12.82;88.43
75006;BME280;63553;51.814;4.600;2023-05-10T00:40:29;101018.38;;;12.75;89.72
75006;BME280;63553;51.814;4.600;2023-05-10T00:42:55;101018.28;;;13.01;87.30
75006;BME280;63553;51.814;4.600;2023-05-10T00:45:21;101014.88;;;12.87;88.59
75006;BME280;63553;51.814;4.600;2023-05-10T00:47:46;101010.25;;;13.08;87.93
75006;BME280;63553;51.814;4.600;2023-05-10T00:50:13;101008.44;;;13.03;87.77
75006;BME280;63553;51.814;4.600;2023-05-10T00:52:38;101001.97;;;12.73;89.38
75006;BME280;63553;51.814;4.600;2023-05-10T00:55:04;101007.34;;;12.87;88.92
75006;BME280;63553;51.814;4.600;2023-05-10T00:57:31;101004.91;;;12.77;89.90
75006;BME280;63553;51.814;4.600;2023-05-10T00:59:56;101010.59;;;12.89;89.32
75006;BME280;63553;51.814;4.600;2023-05-10T01:02:22;101019.31;;;12.88;89.74
75006;BME280;63553;51.814;4.600;2023-05-10T01:04:48;101015.56;;;12.83;89.89
75006;BME280;63553;51.814;4.600;2023-05-10T01:07:14;101013.75;;;12.88;90.13
75006;BME280;63553;51.814;4.600;2023-05-10T01:09:39;101020.16;;;12.88;89.42
75006;BME280;63553;51.814;4.600;2023-05-10T01:12:05;101013.28;;;12.86;90.21
75006;BME280;63553;51.814;4.600;2023-05-10T01:14:32;101015.69;;;12.96;88.59
75006;BME280;63553;51.814;4.600;2023-05-10T01:16:58;101025.31;;;13.07;88.32
75006;BME280;63553;51.814;4.600;2023-05-10T01:19:26;101020.19;;;13.26;87.58
75006;BME280;63553;51.814;4.600;2023-05-10T01:22:07;101021.78;;;13.65;87.30
75006;BME280;63553;51.814;4.600;2023-05-10T01:24:42;101022.16;;;13.55;89.53
75006;BME280;63553;51.814;4.600;2023-05-10T01:27:50;101032.34;;;13.21;87.26
75006;BME280;63553;51.814;4.600;2023-05-10T01:33:11;101032.53;;;13.16;87.22
75006;BME280;63553;51.814;4.600;2023-05-10T01:38:21;101021.41;;;12.99;89.67
75006;BME280;63553;51.814;4.600;2023-05-10T01:41:13;101026.81;;;13.13;89.17
75006;BME280;63553;51.814;4.600;2023-05-10T01:44:09;101028.41;;;13.22;88.64
75006;BME280;63553;51.814;4.600;2023-05-10T01:46:37;101030.25;;;13.10;88.94
75006;BME280;63553;51.814;4.600;2023-05-10T01:49:07;101033.69;;;13.07;89.12
75006;BME280;63553;51.814;4.600;2023-05-10T01:51:47;101036.84;;;13.05;90.08
75006;BME280;63553;51.814;4.600;2023-05-10T01:54:17;101035.84;;;13.10;90.16
75006;BME280;63553;51.814;4.600;2023-05-10T01:56:47;101037.97;;;13.04;89.46
75006;BME280;63553;51.814;4.600;2023-05-10T01:59:17;101033.78;;;13.65;88.98
75006;BME280;63553;51.814;4.600;2023-05-10T02:01:44;101041.09;;;13.49;87.38
75006;BME280;63553;51.814;4.600;2023-05-10T02:04:10;101031.72;;;13.54;86.17
75006;BME280;63553;51.814;4.600;2023-05-10T02:06:39;101037.97;;;13.51;86.39
75006;BME280;63553;51.814;4.600;2023-05-10T02:09:07;101044.19;;;14.06;86.69
75006;BME280;63553;51.814;4.600;2023-05-10T02:11:34;101035.34;;;13.96;87.28
75006;BME280;63553;51.814;4.600;2023-05-10T02:14:00;101050.66;;;13.98;85.95
75006;BME280;63553;51.814;4.600;2023-05-10T02:16:27;101045.28;;;13.64;84.93
75006;BME280;63553;51.814;4.600;2023-05-10T02:18:53;101044.59;;;13.67;85.11
75006;BME280;63553;51.814;4.600;2023-05-10T02:21:21;101037.88;;;13.68;87.52
75006;BME280;63553;51.814;4.600;2023-05-10T02:23:48;101052.13;;;13.46;86.32
75006;BME280;63553;51.814;4.600;2023-05-10T02:26:16;101055.84;;;13.58;86.72
75006;BME280;63553;51.814;4.600;2023-05-10T02:28:43;101057.69;;;13.46;87.62
75006;BME280;63553;51.814;4.600;2023-05-10T02:31:09;101066.28;;;14.40;86.55
75006;BME280;63553;51.814;4.600;2023-05-10T02:33:38;101055.88;;;13.79;83.85
75006;BME280;63553;51.814;4.600;2023-05-10T02:36:04;101054.38;;;13.52;85.22
75006;BME280;63553;51.814;4.600;2023-05-10T02:38:33;101062.41;;;13.62;85.19
75006;BME280;63553;51.814;4.600;2023-05-10T02:40:59;101063.75;;;13.56;86.59
75006;BME280;63553;51.814;4.600;2023-05-10T02:43:27;101063.78;;;13.48;86.90
75006;BME280;63553;51.814;4.600;2023-05-10T02:45:53;101068.84;;;13.83;87.84
75006;BME280;63553;51.814;4.600;2023-05-10T02:48:19;101071.75;;;13.87;87.59
75006;BME280;63553;51.814;4.600;2023-05-10T02:50:45;101067.25;;;13.74;85.57
75006;BME280;63553;51.814;4.600;2023-05-10T02:53:15;101069.75;;;14.17;85.19
75006;BME280;63553;51.814;4.600;2023-05-10T02:55:45;101063.63;;;15.22;86.77
75006;BME280;63553;51.814;4.600;2023-05-10T02:58:13;101067.94;;;14.41;80.91
75006;BME280;63553;51.814;4.600;2023-05-10T03:00:39;101069.63;;;13.84;83.81
75006;BME280;63553;51.814;4.600;2023-05-10T03:03:05;101069.06;;;14.20;85.57
75006;BME280;63553;51.814;4.600;2023-05-10T03:05:30;101070.56;;;13.97;85.09
75006;BME280;63553;51.814;4.600;2023-05-10T03:07:56;101075.44;;;13.79;83.60
75006;BME280;63553;51.814;4.600;2023-05-10T03:10:27;101071.81;;;13.78;84.97
75006;BME280;63553;51.814;4.600;2023-05-10T03:18:15;101066.75;;;14.63;83.18
75006;BME280;63553;51.814;4.600;2023-05-10T03:20:47;101073.97;;;14.02;83.64
75006;BME280;63553;51.814;4.600;2023-05-10T03:23:35;101073.72;;;14.90;83.24
75006;BME280;63553;51.814;4.600;2023-05-10T03:26:05;101068.22;;;14.49;83.12
75006;BME280;63553;51.814;4.600;2023-05-10T03:28:34;101075.25;;;14.05;83.19
75006;BME280;63553;51.814;4.600;2023-05-10T03:30:59;101065.50;;;14.31;84.31
75006;BME280;63553;51.814;4.600;2023-05-10T03:33:25;101069.19;;;14.03;85.07
75006;BME280;63553;51.814;4.600;2023-05-10T03:35:50;101076.72;;;13.81;84.68
75006;BME280;63553;51.814;4.600;2023-05-10T03:38:16;101078.19;;;14.08;85.24
75006;BME280;63553;51.814;4.600;2023-05-10T03:40:41;101070.41;;;13.93;86.14
75006;BME280;63553;51.814;4.600;2023-05-10T03:43:06;101071.66;;;14.04;84.54
75006;BME280;63553;51.814;4.600;2023-05-10T03:45:32;101078.25;;;14.00;85.24
75006;BME280;63553;51.814;4.600;2023-05-10T03:47:58;101078.69;;;14.31;83.66
75006;BME280;63553;51.814;4.600;2023-05-10T03:50:23;101072.53;;;14.17;84.43
75006;BME280;63553;51.814;4.600;2023-05-10T03:52:49;101081.28;;;13.65;83.77
75006;BME280;63553;51.814;4.600;2023-05-10T03:55:14;101085.22;;;13.64;85.56
75006;BME280;63553;51.814;4.600;2023-05-10T03:57:40;101077.97;;;13.34;86.50
75006;BME280;63553;51.814;4.600;2023-05-10T04:00:06;101084.19;;;13.40;87.23
75006;BME280;63553;51.814;4.600;2023-05-10T04:02:31;101088.09;;;14.26;84.69
75006;BME280;63553;51.814;4.600;2023-05-10T04:04:56;101087.47;;;14.21;82.90
75006;BME280;63553;51.814;4.600;2023-05-10T04:07:22;101085.00;;;15.14;83.67
75006;BME280;63553;51.814;4.600;2023-05-10T04:09:47;101079.22;;;14.98;79.45
75006;BME280;63553;51.814;4.600;2023-05-10T04:12:13;101085.91;;;14.73;82.15
75006;BME280;63553;51.814;4.600;2023-05-10T04:14:38;101089.19;;;14.13;80.73
75006;BME280;63553;51.814;4.600;2023-05-10T04:17:03;101086.31;;;14.01;82.92
75006;BME280;63553;51.814;4.600;2023-05-10T04:19:30;101087.91;;;14.85;83.74
75006;BME280;63553;51.814;4.600;2023-05-10T04:21:55;101086.44;;;14.25;81.75
75006;BME280;63553;51.814;4.600;2023-05-10T04:24:21;101092.03;;;14.55;82.49
75006;BME280;63553;51.814;4.600;2023-05-10T04:26:46;101083.84;;;14.00;83.26
75006;BME280;63553;51.814;4.600;2023-05-10T04:29:11;101089.56;;;13.53;84.20
75006;BME280;63553;51.814;4.600;2023-05-10T04:31:37;101093.91;;;13.71;85.10
75006;BME280;63553;51.814;4.600;2023-05-10T04:34:02;101095.31;;;13.48;86.12
75006;BME280;63553;51.814;4.600;2023-05-10T04:36:27;101097.06;;;13.90;86.40
75006;BME280;63553;51.814;4.600;2023-05-10T04:38:53;101105.44;;;14.40;83.73
75006;BME280;63553;51.814;4.600;2023-05-10T04:41:19;101104.34;;;14.74;82.47
75006;BME280;63553;51.814;4.600;2023-05-10T04:43:45;101101.06;;;14.72;83.93
75006;BME280;63553;51.814;4.600;2023-05-10T04:46:11;101105.03;;;15.61;80.59
75006;BME280;63553;51.814;4.600;2023-05-10T04:48:36;101109.25;;;15.91;78.54
75006;BME280;63553;51.814;4.600;2023-05-10T04:51:01;101109.69;;;16.05;78.11
75006;BME280;63553;51.814;4.600;2023-05-10T04:53:28;101105.66;;;16.31;77.65
75006;BME280;63553;51.814;4.600;2023-05-10T04:55:54;101112.00;;;15.43;75.07
75006;BME280;63553;51.814;4.600;2023-05-10T04:58:19;101114.25;;;15.86;78.54
75006;BME280;63553;51.814;4.600;2023-05-10T05:00:45;101112.94;;;15.35;77.99
75006;BME280;63553;51.814;4.600;2023-05-10T05:03:10;101113.81;;;15.27;77.18
75006;BME280;63553;51.814;4.600;2023-05-10T05:05:35;101125.44;;;16.22;77.04
75006;BME280;63553;51.814;4.600;2023-05-10T05:08:01;101122.72;;;17.05;74.92
75006;BME280;63553;51.814;4.600;2023-05-10T05:10:26;101126.97;;;16.99;72.59
75006;BME280;63553;51.814;4.600;2023-05-10T05:12:51;101116.91;;;17.42;72.05
75006;BME280;63553;51.814;4.600;2023-05-10T05:15:16;101127.13;;;17.50;71.28
75006;BME280;63553;51.814;4.600;2023-05-10T05:17:43;101123.94;;;17.63;70.54
75006;BME280;63553;51.814;4.600;2023-05-10T05:20:09;101127.72;;;17.71;70.42
75006;BME280;63553;51.814;4.600;2023-05-10T05:22:36;101133.97;;;17.80;69.83
75006;BME280;63553;51.814;4.600;2023-05-10T05:25:01;101136.06;;;17.83;69.38
75006;BME280;63553;51.814;4.600;2023-05-10T05:27:27;101142.50;;;17.84;69.76
75006;BME280;63553;51.814;4.600;2023-05-10T05:29:53;101140.81;;;17.63;69.81
75006;BME280;63553;51.814;4.600;2023-05-10T05:32:19;101136.16;;;17.71;69.22
75006;BME280;63553;51.814;4.600;2023-05-10T05:34:45;101149.78;;;17.69;69.43
75006;BME280;63553;51.814;4.600;2023-05-10T05:37:14;101152.94;;;17.83;68.68
75006;BME280;63553;51.814;4.600;2023-05-10T05:39:40;101152.50;;;17.81;68.65
75006;BME280;63553;51.814;4.600;2023-05-10T05:42:05;101139.69;;;17.84;68.56
75006;BME280;63553;51.814;4.600;2023-05-10T05:44:30;101153.13;;;17.59;69.17
75006;BME280;63553;51.814;4.600;2023-05-10T05:46:55;101154.41;;;16.90;68.60
75006;BME280;63553;51.814;4.600;2023-05-10T05:49:21;101154.03;;;17.63;68.86
75006;BME280;63553;51.814;4.600;2023-05-10T05:51:46;101157.22;;;17.77;68.54
75006;BME280;63553;51.814;4.600;2023-05-10T05:54:14;101162.75;;;17.89;67.86
75006;BME280;63553;51.814;4.600;2023-05-10T05:56:39;101156.28;;;17.89;67.95
75006;BME280;63553;51.814;4.600;2023-05-10T05:59:04;101161.56;;;17.90;67.73
75006;BME280;63553;51.814;4.600;2023-05-10T06:01:29;101165.53;;;17.14;69.63
75006;BME280;63553;51.814;4.600;2023-05-10T06:03:55;101169.72;;;17.64;68.09
75006;BME280;63553;51.814;4.600;2023-05-10T06:06:20;101170.75;;;17.87;67.79
75006;BME280;63553;51.814;4.600;2023-05-10T06:08:45;101174.09;;;17.77;67.94
75006;BME280;63553;51.814;4.600;2023-05-10T06:11:11;101167.09;;;17.87;67.67
75006;BME280;63553;51.814;4.600;2023-05-10T06:13:36;101175.88;;;18.01;67.32
75006;BME280;63553;51.814;4.600;2023-05-10T06:16:02;101170.19;;;17.66;68.43
75006;BME280;63553;51.814;4.600;2023-05-10T06:18:28;101183.31;;;16.27;68.93
75006;BME280;63553;51.814;4.600;2023-05-10T06:20:53;101186.47;;;16.89;71.86
75006;BME280;63553;51.814;4.600;2023-05-10T06:23:18;101189.25;;;17.01;71.54
75006;BME280;63553;51.814;4.600;2023-05-10T06:25:44;101190.06;;;16.62;70.98
75006;BME280;63553;51.814;4.600;2023-05-10T06:28:09;101180.50;;;16.02;75.18
75006;BME280;63553;51.814;4.600;2023-05-10T06:30:36;101191.69;;;15.00;76.80
75006;BME280;63553;51.814;4.600;2023-05-10T06:33:02;101183.53;;;14.25;78.80
75006;BME280;63553;51.814;4.600;2023-05-10T06:35:28;101189.13;;;14.54;83.85
75006;BME280;63553;51.814;4.600;2023-05-10T06:37:54;101196.34;;;14.55;81.33
75006;BME280;63553;51.814;4.600;2023-05-10T06:40:19;101195.34;;;14.80;87.36
75006;BME280;63553;51.814;4.600;2023-05-10T06:42:45;101202.72;;;16.56;81.85
75006;BME280;63553;51.814;4.600;2023-05-10T06:45:11;101196.13;;;17.32;74.04
75006;BME280;63553;51.814;4.600;2023-05-10T06:47:37;101191.06;;;17.53;72.06
75006;BME280;63553;51.814;4.600;2023-05-10T06:50:02;101192.47;;;17.31;67.24
75006;BME280;63553;51.814;4.600;2023-05-10T06:52:28;101185.88;;;17.98;69.03
75006;BME280;63553;51.814;4.600;2023-05-10T06:54:53;101197.16;;;17.39;71.27
75006;BME280;63553;51.814;4.600;2023-05-10T06:57:18;101192.47;;;17.59;69.58
75006;BME280;63553;51.814;4.600;2023-05-10T06:59:44;101204.66;;;17.63;69.41
75006;BME280;63553;51.814;4.600;2023-05-10T07:02:10;101205.75;;;17.74;69.02
75006;BME280;63553;51.814;4.600;2023-05-10T07:04:35;101204.66;;;17.35;69.87
75006;BME280;63553;51.814;4.600;2023-05-10T07:07:00;101213.81;;;17.04;69.46
75006;BME280;63553;51.814;4.600;2023-05-10T07:09:26;101201.59;;;17.12;70.54
75006;BME280;63553;51.814;4.600;2023-05-10T07:11:51;101215.81;;;15.91;72.27
75006;BME280;63553;51.814;4.600;2023-05-10T07:14:17;101219.53;;;17.08;73.28
75006;BME280;63553;51.814;4.600;2023-05-10T07:16:42;101224.16;;;17.28;71.01
75006;BME280;63553;51.814;4.600;2023-05-10T07:19:07;101224.25;;;17.75;69.26
75006;BME280;63553;51.814;4.600;2023-05-10T07:21:33;101223.31;;;17.28;70.51
75006;BME280;63553;51.814;4.600;2023-05-10T07:23:58;101226.97;;;17.71;69.10
75006;BME280;63553;51.814;4.600;2023-05-10T07:26:24;101228.31;;;16.54;69.88
75006;BME280;63553;51.814;4.600;2023-05-10T07:28:50;101222.69;;;17.34;68.44
75006;BME280;63553;51.814;4.600;2023-05-10T07:31:15;101226.66;;;16.78;68.52
75006;BME280;63553;51.814;4.600;2023-05-10T07:33:41;101231.53;;;17.48;69.83
75006;BME280;63553;51.814;4.600;2023-05-10T07:36:06;101230.84;;;17.67;69.67
75006;BME280;63553;51.814;4.600;2023-05-10T07:38:31;101227.47;;;16.66;70.68
75006;BME280;63553;51.814;4.600;2023-05-10T07:40:57;101227.66;;;16.97;72.07
75006;BME280;63553;51.814;4.600;2023-05-10T07:43:22;101227.25;;;17.66;69.75
75006;BME280;63553;51.814;4.600;2023-05-10T07:45:47;101232.81;;;17.51;69.88
75006;BME280;63553;51.814;4.600;2023-05-10T07:48:13;101229.78;;;17.44;70.40
75006;BME280;63553;51.814;4.600;2023-05-10T07:50:38;101236.59;;;17.43;70.22
75006;BME280;63553;51.814;4.600;2023-05-10T07:53:04;101232.41;;;17.64;69.50
75006;BME280;63553;51.814;4.600;2023-05-10T07:55:29;101232.53;;;18.15;68.21
75006;BME280;63553;51.814;4.600;2023-05-10T07:57:54;101228.25;;;18.37;67.06
75006;BME280;63553;51.814;4.600;2023-05-10T08:00:20;101241.25;;;17.51;66.34
75006;BME280;63553;51.814;4.600;2023-05-10T08:02:46;101236.50;;;18.29;67.41
75006;BME280;63553;51.814;4.600;2023-05-10T08:05:12;101239.56;;;17.62;69.28
75006;BME280;63553;51.814;4.600;2023-05-10T08:07:37;101238.19;;;17.56;69.53
75006;BME280;63553;51.814;4.600;2023-05-10T08:10:04;101244.63;;;17.01;70.11
75006;BME280;63553;51.814;4.600;2023-05-10T08:12:29;101239.97;;;18.07;68.77
75006;BME280;63553;51.814;4.600;2023-05-10T08:14:55;101241.25;;;18.25;67.55
75006;BME280;63553;51.814;4.600;2023-05-10T08:17:20;101251.78;;;17.82;69.13
75006;BME280;63553;51.814;4.600;2023-05-10T08:19:46;101256.31;;;17.86;68.95
75006;BME280;63553;51.814;4.600;2023-05-10T08:22:11;101254.13;;;16.72;71.04
75006;BME280;63553;51.814;4.600;2023-05-10T08:24:37;101255.78;;;16.49;71.26
75006;BME280;63553;51.814;4.600;2023-05-10T08:27:05;101262.22;;;16.49;72.36
75006;BME280;63553;51.814;4.600;2023-05-10T08:29:30;101265.41;;;16.36;71.88
75006;BME280;63553;51.814;4.600;2023-05-10T08:31:56;101266.56;;;17.79;69.90
75006;BME280;63553;51.814;4.600;2023-05-10T08:34:21;101258.47;;;18.24;68.02
75006;BME280;63553;51.814;4.600;2023-05-10T08:36:46;101262.50;;;17.08;70.45
75006;BME280;63553;51.814;4.600;2023-05-10T08:39:12;101259.41;;;18.12;68.27
75006;BME280;63553;51.814;4.600;2023-05-10T08:41:39;101267.66;;;18.37;66.94
75006;BME280;63553;51.814;4.600;2023-05-10T08:44:07;101269.00;;;18.11;66.70
75006;BME280;63553;51.814;4.600;2023-05-10T08:46:33;101262.13;;;18.24;67.36
75006;BME280;63553;51.814;4.600;2023-05-10T08:49:02;101273.97;;;17.71;66.21
75006;BME280;63553;51.814;4.600;2023-05-10T08:51:31;101281.38;;;18.07;66.22
75006;BME280;63553;51.814;4.600;2023-05-10T08:53:57;101281.09;;;18.43;67.01
75006;BME280;63553;51.814;4.600;2023-05-10T08:56:23;101278.22;;;18.55;66.30
75006;BME280;63553;51.814;4.600;2023-05-10T08:58:49;101281.72;;;18.68;64.67
75006;BME280;63553;51.814;4.600;2023-05-10T09:01:16;101282.06;;;18.82;65.32
75006;BME280;63553;51.814;4.600;2023-05-10T09:03:43;101285.63;;;18.79;64.97
75006;BME280;63553;51.814;4.600;2023-05-10T09:06:11;101278.56;;;18.88;64.67
75006;BME280;63553;51.814;4.600;2023-05-10T09:08:38;101285.22;;;18.80;64.45
75006;BME280;63553;51.814;4.600;2023-05-10T09:11:04;101289.06;;;18.88;64.37
75006;BME280;63553;51.814;4.600;2023-05-10T09:13:30;101292.09;;;18.64;64.99
75006;BME280;63553;51.814;4.600;2023-05-10T09:15:56;101297.44;;;18.22;65.21
75006;BME280;63553;51.814;4.600;2023-05-10T09:18:21;101293.53;;;18.11;67.77
75006;BME280;63553;51.814;4.600;2023-05-10T09:20:47;101299.53;;;17.66;65.82
75006;BME280;63553;51.814;4.600;2023-05-10T09:23:13;101297.25;;;18.62;66.60
75006;BME280;63553;51.814;4.600;2023-05-10T09:25:41;101291.44;;;18.39;65.62
75006;BME280;63553;51.814;4.600;2023-05-10T09:28:08;101297.94;;;18.55;66.07
75006;BME280;63553;51.814;4.600;2023-05-10T09:30:37;101307.44;;;18.19;64.19
75006;BME280;63553;51.814;4.600;2023-05-10T09:33:02;101303.56;;;17.81;67.90
75006;BME280;63553;51.814;4.600;2023-05-10T09:35:30;101308.28;;;17.76;66.09
75006;BME280;63553;51.814;4.600;2023-05-10T09:37:59;101309.25;;;18.43;63.93
75006;BME280;63553;51.814;4.600;2023-05-10T09:40:27;101306.63;;;18.66;65.36
75006;BME280;63553;51.814;4.600;2023-05-10T09:43:03;101316.28;;;19.00;65.08
75006;BME280;63553;51.814;4.600;2023-05-10T09:45:30;101323.56;;;18.07;67.66
75006;BME280;63553;51.814;4.600;2023-05-10T09:47:56;101317.81;;;17.72;69.00
75006;BME280;63553;51.814;4.600;2023-05-10T09:50:23;101324.50;;;18.42;67.12
75006;BME280;63553;51.814;4.600;2023-05-10T09:52:53;101332.94;;;18.11;65.77
75006;BME280;63553;51.814;4.600;2023-05-10T09:55:22;101336.41;;;18.36;64.25
75006;BME280;63553;51.814;4.600;2023-05-10T09:57:48;101327.50;;;18.02;67.30
75006;BME280;63553;51.814;4.600;2023-05-10T10:00:20;101329.84;;;18.47;66.47
75006;BME280;63553;51.814;4.600;2023-05-10T10:02:58;101328.22;;;17.32;68.75
75006;BME280;63553;51.814;4.600;2023-05-10T10:05:33;101321.53;;;18.51;66.22
75006;BME280;63553;51.814;4.600;2023-05-10T10:08:00;101328.31;;;18.81;64.70
75006;BME280;63553;51.814;4.600;2023-05-10T10:10:26;101325.88;;;18.79;64.63
75006;BME280;63553;51.814;4.600;2023-05-10T10:12:52;101324.09;;;18.56;65.50
75006;BME280;63553;51.814;4.600;2023-05-10T10:15:18;101335.31;;;18.24;66.69
75006;BME280;63553;51.814;4.600;2023-05-10T10:17:45;101329.69;;;18.71;65.05
75006;BME280;63553;51.814;4.600;2023-05-10T10:20:10;101340.81;;;18.49;65.47
75006;BME280;63553;51.814;4.600;2023-05-10T10:22:37;101336.25;;;18.75;64.22
75006;BME280;63553;51.814;4.600;2023-05-10T10:25:04;101344.56;;;19.03;63.76
75006;BME280;63553;51.814;4.600;2023-05-10T10:27:47;101343.88;;;19.10;63.43
75006;BME280;63553;51.814;4.600;2023-05-10T10:35:29;101348.28;;;18.92;63.91
75006;BME280;63553;51.814;4.600;2023-05-10T10:37:55;101340.66;;;18.92;64.08
75006;BME280;63553;51.814;4.600;2023-05-10T10:40:32;101343.38;;;18.88;63.95
75006;BME280;63553;51.814;4.600;2023-05-10T10:43:21;101346.59;;;18.87;64.54
75006;BME280;63553;51.814;4.600;2023-05-10T10:46:16;101345.31;;;18.69;64.88
75006;BME280;63553;51.814;4.600;2023-05-10T10:48:50;101351.25;;;18.79;64.29
75006;BME280;63553;51.814;4.600;2023-05-10T10:51:16;101346.34;;;18.76;64.60
75006;BME280;63553;51.814;4.600;2023-05-10T10:53:42;101347.16;;;18.61;64.75
75006;BME280;63553;51.814;4.600;2023-05-10T10:56:09;101351.25;;;18.79;64.84
75006;BME280;63553;51.814;4.600;2023-05-10T10:58:38;101362.59;;;18.52;65.43
75006;BME280;63553;51.814;4.600;2023-05-10T11:01:21;101356.41;;;18.77;64.54
75006;BME280;63553;51.814;4.600;2023-05-10T11:06:31;101357.03;;;18.71;64.99
75006;BME280;63553;51.814;4.600;2023-05-10T11:08:57;101363.34;;;18.49;65.76
75006;BME280;63553;51.814;4.600;2023-05-10T11:11:23;101362.59;;;18.67;65.12
75006;BME280;63553;51.814;4.600;2023-05-10T11:13:48;101361.69;;;18.63;65.05
75006;BME280;63553;51.814;4.600;2023-05-10T11:16:23;101360.88;;;18.78;64.59
75006;BME280;63553;51.814;4.600;2023-05-10T11:19:06;101359.03;;;18.86;64.01
75006;BME280;63553;51.814;4.600;2023-05-10T11:21:33;101367.22;;;18.75;64.63
75006;BME280;63553;51.814;4.600;2023-05-10T11:24:00;101361.69;;;18.79;63.99
75006;BME280;63553;51.814;4.600;2023-05-10T11:26:32;101363.09;;;18.88;64.02
75006;BME280;63553;51.814;4.600;2023-05-10T11:28:59;101366.00;;;18.92;64.20
75006;BME280;63553;51.814;4.600;2023-05-10T11:31:26;101359.38;;;19.00;63.38
75006;BME280;63553;51.814;4.600;2023-05-10T11:33:57;101366.94;;;18.96;64.14
75006;BME280;63553;51.814;4.600;2023-05-10T11:36:27;101365.56;;;19.06;63.49
75006;BME280;63553;51.814;4.600;2023-05-10T11:38:53;101367.25;;;19.10;63.63
75006;BME280;63553;51.814;4.600;2023-05-10T11:41:20;101364.63;;;19.17;63.05
75006;BME280;63553;51.814;4.600;2023-05-10T11:43:52;101369.53;;;19.20;63.19
75006;BME280;63553;51.814;4.600;2023-05-10T11:46:19;101369.78;;;19.15;63.56
75006;BME280;63553;51.814;4.600;2023-05-10T11:48:47;101368.00;;;19.07;63.05
75006;BME280;63553;51.814;4.600;2023-05-10T11:51:13;101368.91;;;19.11;63.23
75006;BME280;63553;51.814;4.600;2023-05-10T11:53:39;101372.75;;;19.03;63.34
75006;BME280;63553;51.814;4.600;2023-05-10T11:56:06;101375.16;;;19.20;62.47
75006;BME280;63553;51.814;4.600;2023-05-10T11:58:32;101373.69;;;19.26;62.39
75006;BME280;63553;51.814;4.600;2023-05-10T12:00:59;101370.94;;;19.30;61.56
75006;BME280;63553;51.814;4.600;2023-05-10T12:03:25;101370.25;;;19.17;62.82
75006;BME280;63553;51.814;4.600;2023-05-10T12:05:50;101372.78;;;19.22;62.63
75006;BME280;63553;51.814;4.600;2023-05-10T12:08:21;101364.41;;;19.26;61.56
75006;BME280;63553;51.814;4.600;2023-05-10T12:10:46;101372.44;;;19.24;62.58
75006;BME280;63553;51.814;4.600;2023-05-10T12:13:13;101372.03;;;19.41;61.58
75006;BME280;63553;51.814;4.600;2023-05-10T12:15:39;101372.22;;;19.32;61.99
75006;BME280;63553;51.814;4.600;2023-05-10T12:18:05;101375.06;;;19.17;62.06
75006;BME280;63553;51.814;4.600;2023-05-10T12:20:31;101381.69;;;19.24;61.54
75006;BME280;63553;51.814;4.600;2023-05-10T12:22:58;101383.03;;;19.30;61.51
75006;BME280;63553;51.814;4.600;2023-05-10T12:25:29;101385.50;;;19.32;61.99
75006;BME280;63553;51.814;4.600;2023-05-10T12:27:56;101378.06;;;19.24;62.58
75006;BME280;63553;51.814;4.600;2023-05-10T12:30:25;101380.94;;;19.27;61.82
75006;BME280;63553;51.814;4.600;2023-05-10T12:32:52;101380.91;;;19.08;62.71
75006;BME280;63553;51.814;4.600;2023-05-10T12:35:17;101383.53;;;19.17;62.13
75006;BME280;63553;51.814;4.600;2023-05-10T12:37:47;101390.94;;;19.40;61.72
75006;BME280;63553;51.814;4.600;2023-05-10T12:40:12;101380.94;;;19.43;61.62
75006;BME280;63553;51.814;4.600;2023-05-10T12:42:38;101386.66;;;19.47;61.55
75006;BME280;63553;51.814;4.600;2023-05-10T12:45:05;101388.84;;;19.37;62.46
75006;BME280;63553;51.814;4.600;2023-05-10T12:47:32;101389.25;;;19.55;61.67
75006;BME280;63553;51.814;4.600;2023-05-10T12:49:58;101393.31;;;19.38;61.42
75006;BME280;63553;51.814;4.600;2023-05-10T12:52:24;101399.63;;;19.51;61.66
75006;BME280;63553;51.814;4.600;2023-05-10T12:54:50;101402.03;;;19.49;61.64
75006;BME280;63553;51.814;4.600;2023-05-10T12:57:16;101397.03;;;19.42;61.31
75006;BME280;63553;51.814;4.600;2023-05-10T12:59:42;101398.69;;;19.44;61.76
75006;BME280;63553;51.814;4.600;2023-05-10T13:02:08;101394.47;;;19.37;60.83
75006;BME280;63553;51.814;4.600;2023-05-10T13:04:33;101400.38;;;19.48;60.58
75006;BME280;63553;51.814;4.600;2023-05-10T13:06:59;101395.22;;;19.34;59.58
75006;BME280;63553;51.814;4.600;2023-05-10T13:09:25;101395.66;;;19.52;60.58